Terminal Aerodrome Forecast
Issued by NWS

Home | Current Version | Previous Version | Text Only | Print | Product List | Glossary On
Versions: 1 2 3 4 5 6 7 8 9 10 11 12
065
FTUS42 KMLB 121132
TAFLEE
TAF
KLEE 121132Z 1212/1312 21004KT P6SM SKC
     FM121400 23008KT P6SM SKC
     FM121700 25013G21KT P6SM FEW250
     FM122300 26008KT P6SM SKC=

USA.gov is the U.S. government's official web portal to all federal, state and local government web resources and services.